sensor_id;sensor_type;location;lat;lon;timestamp;P1;durP1;ratioP1;P2;durP2;ratioP2
9224;SDS011;4647;48.072;11.616;2022-09-12T00:01:57;4.60;;;4.20;;
9224;SDS011;4647;48.072;11.616;2022-09-12T00:04:25;6.57;;;4.60;;
9224;SDS011;4647;48.072;11.616;2022-09-12T00:06:53;5.70;;;4.33;;
9224;SDS011;4647;48.072;11.616;2022-09-12T00:09:20;5.10;;;4.40;;
9224;SDS011;4647;48.072;11.616;2022-09-12T00:11:47;5.97;;;4.87;;
9224;SDS011;4647;48.072;11.616;2022-09-12T00:14:15;5.23;;;4.20;;
9224;SDS011;4647;48.072;11.616;2022-09-12T00:16:43;4.50;;;4.10;;
9224;SDS011;4647;48.072;11.616;2022-09-12T00:19:11;4.83;;;4.33;;
9224;SDS011;4647;48.072;11.616;2022-09-12T00:21:38;5.30;;;4.40;;
9224;SDS011;4647;48.072;11.616;2022-09-12T00:24:07;4.77;;;4.37;;
9224;SDS011;4647;48.072;11.616;2022-09-12T00:26:34;4.47;;;4.07;;
9224;SDS011;4647;48.072;11.616;2022-09-12T00:29:02;4.60;;;4.20;;
9224;SDS011;4647;48.072;11.616;2022-09-12T00:31:29;5.90;;;4.00;;
9224;SDS011;4647;48.072;11.616;2022-09-12T00:33:57;4.97;;;4.47;;
9224;SDS011;4647;48.072;11.616;2022-09-12T00:36:26;5.50;;;4.40;;
9224;SDS011;4647;48.072;11.616;2022-09-12T00:38:54;6.93;;;4.00;;
9224;SDS011;4647;48.072;11.616;2022-09-12T00:41:23;5.87;;;4.37;;
9224;SDS011;4647;48.072;11.616;2022-09-12T00:43:52;6.03;;;4.17;;
9224;SDS011;4647;48.072;11.616;2022-09-12T00:46:26;4.50;;;4.10;;
9224;SDS011;4647;48.072;11.616;2022-09-12T00:49:00;4.17;;;3.73;;
9224;SDS011;4647;48.072;11.616;2022-09-12T00:51:30;4.13;;;3.60;;
9224;SDS011;4647;48.072;11.616;2022-09-12T00:54:02;4.80;;;3.90;;
9224;SDS011;4647;48.072;11.616;2022-09-12T00:56:34;5.40;;;3.80;;
9224;SDS011;4647;48.072;11.616;2022-09-12T00:59:04;4.53;;;4.13;;
9224;SDS011;4647;48.072;11.616;2022-09-12T01:01:35;4.73;;;4.23;;
9224;SDS011;4647;48.072;11.616;2022-09-12T01:04:03;8.37;;;4.23;;
9224;SDS011;4647;48.072;11.616;2022-09-12T01:06:32;4.30;;;3.90;;
9224;SDS011;4647;48.072;11.616;2022-09-12T01:09:01;4.53;;;4.13;;
9224;SDS011;4647;48.072;11.616;2022-09-12T01:11:29;4.83;;;3.73;;
9224;SDS011;4647;48.072;11.616;2022-09-12T01:13:58;5.57;;;4.33;;
9224;SDS011;4647;48.072;11.616;2022-09-12T01:16:25;5.10;;;3.77;;
9224;SDS011;4647;48.072;11.616;2022-09-12T01:18:58;4.50;;;4.10;;
9224;SDS011;4647;48.072;11.616;2022-09-12T01:21:40;3.90;;;3.53;;
9224;SDS011;4647;48.072;11.616;2022-09-12T01:24:26;7.73;;;3.63;;
9224;SDS011;4647;48.072;11.616;2022-09-12T01:27:09;4.47;;;3.77;;
9224;SDS011;4647;48.072;11.616;2022-09-12T01:30:04;4.77;;;3.63;;
9224;SDS011;4647;48.072;11.616;2022-09-12T01:32:57;4.77;;;3.87;;
9224;SDS011;4647;48.072;11.616;2022-09-12T01:35:35;5.13;;;4.37;;
9224;SDS011;4647;48.072;11.616;2022-09-12T01:38:17;5.90;;;4.00;;
9224;SDS011;4647;48.072;11.616;2022-09-12T01:40:50;5.33;;;4.03;;
9224;SDS011;4647;48.072;11.616;2022-09-12T01:43:26;4.20;;;3.80;;
9224;SDS011;4647;48.072;11.616;2022-09-12T01:46:00;5.90;;;3.90;;
9224;SDS011;4647;48.072;11.616;2022-09-12T01:48:35;3.90;;;3.60;;
9224;SDS011;4647;48.072;11.616;2022-09-12T01:51:06;5.13;;;3.87;;
9224;SDS011;4647;48.072;11.616;2022-09-12T01:53:40;5.13;;;4.00;;
9224;SDS011;4647;48.072;11.616;2022-09-12T01:56:10;4.03;;;3.63;;
9224;SDS011;4647;48.072;11.616;2022-09-12T01:58:41;4.40;;;4.00;;
9224;SDS011;4647;48.072;11.616;2022-09-12T02:01:13;8.03;;;4.07;;
9224;SDS011;4647;48.072;11.616;2022-09-12T02:03:47;4.93;;;3.70;;
9224;SDS011;4647;48.072;11.616;2022-09-12T02:06:21;4.63;;;3.90;;
9224;SDS011;4647;48.072;11.616;2022-09-12T02:08:53;7.27;;;4.00;;
9224;SDS011;4647;48.072;11.616;2022-09-12T02:11:23;4.20;;;3.80;;
9224;SDS011;4647;48.072;11.616;2022-09-12T02:13:52;4.07;;;3.70;;
9224;SDS011;4647;48.072;11.616;2022-09-12T02:16:24;4.13;;;3.73;;
9224;SDS011;4647;48.072;11.616;2022-09-12T02:18:58;5.17;;;3.87;;
9224;SDS011;4647;48.072;11.616;2022-09-12T02:21:32;4.50;;;3.83;;
9224;SDS011;4647;48.072;11.616;2022-09-12T02:24:01;6.07;;;4.03;;
9224;SDS011;4647;48.072;11.616;2022-09-12T02:26:31;4.37;;;3.97;;
9224;SDS011;4647;48.072;11.616;2022-09-12T02:29:01;4.30;;;3.90;;
9224;SDS011;4647;48.072;11.616;2022-09-12T02:31:31;6.13;;;4.13;;
9224;SDS011;4647;48.072;11.616;2022-09-12T02:34:16;4.03;;;3.50;;
9224;SDS011;4647;48.072;11.616;2022-09-12T02:36:54;4.10;;;3.33;;
9224;SDS011;4647;48.072;11.616;2022-09-12T02:39:30;3.93;;;3.53;;
9224;SDS011;4647;48.072;11.616;2022-09-12T02:41:58;7.37;;;3.27;;
9224;SDS011;4647;48.072;11.616;2022-09-12T02:44:28;4.70;;;4.17;;
9224;SDS011;4647;48.072;11.616;2022-09-12T02:46:59;8.77;;;3.80;;
9224;SDS011;4647;48.072;11.616;2022-09-12T02:49:31;4.40;;;4.00;;
9224;SDS011;4647;48.072;11.616;2022-09-12T02:51:58;6.07;;;3.93;;
9224;SDS011;4647;48.072;11.616;2022-09-12T02:54:27;5.40;;;3.80;;
9224;SDS011;4647;48.072;11.616;2022-09-12T02:56:56;5.87;;;4.40;;
9224;SDS011;4647;48.072;11.616;2022-09-12T02:59:23;4.60;;;3.93;;
9224;SDS011;4647;48.072;11.616;2022-09-12T03:04:47;6.33;;;4.43;;
9224;SDS011;4647;48.072;11.616;2022-09-12T03:07:39;6.00;;;4.17;;
9224;SDS011;4647;48.072;11.616;2022-09-12T03:10:27;4.40;;;4.00;;
9224;SDS011;4647;48.072;11.616;2022-09-12T03:13:03;5.17;;;4.27;;
9224;SDS011;4647;48.072;11.616;2022-09-12T03:15:39;5.83;;;4.30;;
9224;SDS011;4647;48.072;11.616;2022-09-12T03:18:17;4.77;;;4.10;;
9224;SDS011;4647;48.072;11.616;2022-09-12T03:20:58;4.67;;;4.27;;
9224;SDS011;4647;48.072;11.616;2022-09-12T03:23:29;5.20;;;3.63;;
9224;SDS011;4647;48.072;11.616;2022-09-12T03:26:00;11.67;;;4.27;;
9224;SDS011;4647;48.072;11.616;2022-09-12T03:28:31;6.30;;;4.17;;
9224;SDS011;4647;48.072;11.616;2022-09-12T03:30:59;5.83;;;4.53;;
9224;SDS011;4647;48.072;11.616;2022-09-12T03:33:38;4.60;;;4.20;;
9224;SDS011;4647;48.072;11.616;2022-09-12T03:36:07;5.20;;;4.20;;
9224;SDS011;4647;48.072;11.616;2022-09-12T03:38:39;4.23;;;3.83;;
9224;SDS011;4647;48.072;11.616;2022-09-12T03:41:06;4.73;;;4.33;;
9224;SDS011;4647;48.072;11.616;2022-09-12T03:43:33;4.87;;;3.97;;
9224;SDS011;4647;48.072;11.616;2022-09-12T03:46:00;5.23;;;4.00;;
9224;SDS011;4647;48.072;11.616;2022-09-12T03:48:27;4.03;;;3.73;;
9224;SDS011;4647;48.072;11.616;2022-09-12T03:50:58;5.10;;;4.10;;
9224;SDS011;4647;48.072;11.616;2022-09-12T03:53:26;4.17;;;3.77;;
9224;SDS011;4647;48.072;11.616;2022-09-12T03:55:54;5.90;;;3.90;;
9224;SDS011;4647;48.072;11.616;2022-09-12T03:58:21;5.07;;;4.57;;
9224;SDS011;4647;48.072;11.616;2022-09-12T04:00:48;4.27;;;3.87;;
9224;SDS011;4647;48.072;11.616;2022-09-12T04:03:15;3.93;;;3.50;;
9224;SDS011;4647;48.072;11.616;2022-09-12T04:05:43;4.03;;;3.63;;
9224;SDS011;4647;48.072;11.616;2022-09-12T04:08:11;4.90;;;3.73;;
9224;SDS011;4647;48.072;11.616;2022-09-12T04:10:39;5.57;;;3.53;;
9224;SDS011;4647;48.072;11.616;2022-09-12T04:13:06;6.33;;;3.90;;
9224;SDS011;4647;48.072;11.616;2022-09-12T04:15:33;4.27;;;3.80;;
9224;SDS011;4647;48.072;11.616;2022-09-12T04:18:00;5.53;;;4.10;;
9224;SDS011;4647;48.072;11.616;2022-09-12T04:20:27;6.73;;;3.87;;
9224;SDS011;4647;48.072;11.616;2022-09-12T04:22:54;6.50;;;4.10;;
9224;SDS011;4647;48.072;11.616;2022-09-12T04:25:20;4.20;;;3.47;;
9224;SDS011;4647;48.072;11.616;2022-09-12T04:27:49;6.27;;;4.10;;
9224;SDS011;4647;48.072;11.616;2022-09-12T04:30:16;4.60;;;3.73;;
9224;SDS011;4647;48.072;11.616;2022-09-12T04:32:43;4.83;;;3.53;;
9224;SDS011;4647;48.072;11.616;2022-09-12T04:35:10;4.70;;;3.57;;
9224;SDS011;4647;48.072;11.616;2022-09-12T04:37:38;3.93;;;3.50;;
9224;SDS011;4647;48.072;11.616;2022-09-12T04:40:05;4.87;;;4.17;;
9224;SDS011;4647;48.072;11.616;2022-09-12T04:42:32;5.73;;;4.17;;
9224;SDS011;4647;48.072;11.616;2022-09-12T04:45:00;4.03;;;3.63;;
9224;SDS011;4647;48.072;11.616;2022-09-12T04:47:29;10.43;;;4.00;;
9224;SDS011;4647;48.072;11.616;2022-09-12T04:49:56;4.27;;;3.87;;
9224;SDS011;4647;48.072;11.616;2022-09-12T04:52:23;4.07;;;3.67;;
9224;SDS011;4647;48.072;11.616;2022-09-12T04:54:50;4.80;;;3.60;;
9224;SDS011;4647;48.072;11.616;2022-09-12T04:57:17;4.87;;;3.90;;
9224;SDS011;4647;48.072;11.616;2022-09-12T04:59:44;4.50;;;4.00;;
9224;SDS011;4647;48.072;11.616;2022-09-12T05:02:12;5.00;;;3.83;;
9224;SDS011;4647;48.072;11.616;2022-09-12T05:04:39;5.20;;;3.90;;
9224;SDS011;4647;48.072;11.616;2022-09-12T05:07:05;5.73;;;4.00;;
9224;SDS011;4647;48.072;11.616;2022-09-12T05:09:32;4.63;;;4.13;;
9224;SDS011;4647;48.072;11.616;2022-09-12T05:11:59;4.90;;;4.33;;
9224;SDS011;4647;48.072;11.616;2022-09-12T05:14:26;4.73;;;3.87;;
9224;SDS011;4647;48.072;11.616;2022-09-12T05:16:53;6.00;;;4.13;;
9224;SDS011;4647;48.072;11.616;2022-09-12T05:19:25;4.93;;;3.90;;
9224;SDS011;4647;48.072;11.616;2022-09-12T05:21:52;5.40;;;3.97;;
9224;SDS011;4647;48.072;11.616;2022-09-12T05:24:19;8.13;;;4.30;;
9224;SDS011;4647;48.072;11.616;2022-09-12T05:26:46;4.93;;;4.10;;
9224;SDS011;4647;48.072;11.616;2022-09-12T05:29:13;5.23;;;3.83;;
9224;SDS011;4647;48.072;11.616;2022-09-12T05:31:39;5.37;;;4.50;;
9224;SDS011;4647;48.072;11.616;2022-09-12T05:34:06;4.20;;;3.80;;
9224;SDS011;4647;48.072;11.616;2022-09-12T05:36:35;5.80;;;4.33;;
9224;SDS011;4647;48.072;11.616;2022-09-12T05:39:02;4.70;;;3.97;;
9224;SDS011;4647;48.072;11.616;2022-09-12T05:41:30;5.47;;;4.20;;
9224;SDS011;4647;48.072;11.616;2022-09-12T05:43:59;6.17;;;4.20;;
9224;SDS011;4647;48.072;11.616;2022-09-12T05:46:27;9.13;;;4.20;;
9224;SDS011;4647;48.072;11.616;2022-09-12T05:48:55;7.23;;;3.87;;
9224;SDS011;4647;48.072;11.616;2022-09-12T05:51:23;8.27;;;4.53;;
9224;SDS011;4647;48.072;11.616;2022-09-12T05:53:55;5.57;;;4.00;;
9224;SDS011;4647;48.072;11.616;2022-09-12T05:56:24;7.70;;;4.43;;
9224;SDS011;4647;48.072;11.616;2022-09-12T05:58:53;6.40;;;3.97;;
9224;SDS011;4647;48.072;11.616;2022-09-12T06:01:21;5.67;;;3.67;;
9224;SDS011;4647;48.072;11.616;2022-09-12T06:03:50;5.70;;;4.00;;
9224;SDS011;4647;48.072;11.616;2022-09-12T06:06:18;7.77;;;3.77;;
9224;SDS011;4647;48.072;11.616;2022-09-12T06:08:47;4.20;;;3.50;;
9224;SDS011;4647;48.072;11.616;2022-09-12T06:11:17;4.03;;;2.93;;
9224;SDS011;4647;48.072;11.616;2022-09-12T06:13:45;6.57;;;3.20;;
9224;SDS011;4647;48.072;11.616;2022-09-12T06:16:14;4.07;;;3.00;;
9224;SDS011;4647;48.072;11.616;2022-09-12T06:18:45;5.67;;;3.43;;
9224;SDS011;4647;48.072;11.616;2022-09-12T06:21:13;3.97;;;2.73;;
9224;SDS011;4647;48.072;11.616;2022-09-12T06:23:40;3.23;;;2.67;;
9224;SDS011;4647;48.072;11.616;2022-09-12T06:26:08;7.30;;;2.80;;
9224;SDS011;4647;48.072;11.616;2022-09-12T06:28:38;4.17;;;2.30;;
9224;SDS011;4647;48.072;11.616;2022-09-12T06:31:07;6.20;;;2.83;;
9224;SDS011;4647;48.072;11.616;2022-09-12T06:33:35;4.43;;;2.40;;
9224;SDS011;4647;48.072;11.616;2022-09-12T06:36:04;5.40;;;2.30;;
9224;SDS011;4647;48.072;11.616;2022-09-12T06:38:33;4.47;;;2.40;;
9224;SDS011;4647;48.072;11.616;2022-09-12T06:41:02;2.60;;;2.40;;
9224;SDS011;4647;48.072;11.616;2022-09-12T06:43:29;2.87;;;2.60;;
9224;SDS011;4647;48.072;11.616;2022-09-12T06:45:57;3.60;;;2.50;;
9224;SDS011;4647;48.072;11.616;2022-09-12T06:48:24;4.73;;;2.43;;
9224;SDS011;4647;48.072;11.616;2022-09-12T06:50:56;4.63;;;2.63;;
9224;SDS011;4647;48.072;11.616;2022-09-12T06:53:24;3.57;;;2.30;;
9224;SDS011;4647;48.072;11.616;2022-09-12T06:55:56;4.70;;;2.10;;
9224;SDS011;4647;48.072;11.616;2022-09-12T06:58:23;3.40;;;2.30;;
9224;SDS011;4647;48.072;11.616;2022-09-12T07:00:50;4.20;;;2.53;;
9224;SDS011;4647;48.072;11.616;2022-09-12T07:03:19;3.80;;;2.40;;
9224;SDS011;4647;48.072;11.616;2022-09-12T07:05:46;5.97;;;2.40;;
9224;SDS011;4647;48.072;11.616;2022-09-12T07:08:13;7.97;;;1.93;;
9224;SDS011;4647;48.072;11.616;2022-09-12T07:10:39;6.63;;;2.87;;
9224;SDS011;4647;48.072;11.616;2022-09-12T07:13:06;5.03;;;2.20;;
9224;SDS011;4647;48.072;11.616;2022-09-12T07:15:33;6.40;;;2.50;;
9224;SDS011;4647;48.072;11.616;2022-09-12T07:18:01;3.13;;;2.50;;
9224;SDS011;4647;48.072;11.616;2022-09-12T07:20:29;16.37;;;4.20;;
9224;SDS011;4647;48.072;11.616;2022-09-12T07:22:57;6.70;;;2.90;;
9224;SDS011;4647;48.072;11.616;2022-09-12T07:25:24;5.57;;;2.37;;
9224;SDS011;4647;48.072;11.616;2022-09-12T07:27:51;3.20;;;2.67;;
9224;SDS011;4647;48.072;11.616;2022-09-12T07:30:19;3.03;;;2.30;;
9224;SDS011;4647;48.072;11.616;2022-09-12T07:32:46;4.07;;;2.50;;
9224;SDS011;4647;48.072;11.616;2022-09-12T07:35:16;3.23;;;2.23;;
9224;SDS011;4647;48.072;11.616;2022-09-12T07:37:44;2.73;;;1.90;;
9224;SDS011;4647;48.072;11.616;2022-09-12T07:40:11;5.03;;;2.17;;
9224;SDS011;4647;48.072;11.616;2022-09-12T07:42:38;2.37;;;2.17;;
9224;SDS011;4647;48.072;11.616;2022-09-12T07:45:05;3.70;;;2.30;;
9224;SDS011;4647;48.072;11.616;2022-09-12T07:47:33;3.40;;;2.00;;
9224;SDS011;4647;48.072;11.616;2022-09-12T07:50:00;2.47;;;1.90;;
9224;SDS011;4647;48.072;11.616;2022-09-12T07:52:26;3.50;;;1.80;;
9224;SDS011;4647;48.072;11.616;2022-09-12T07:54:55;2.27;;;2.00;;
9224;SDS011;4647;48.072;11.616;2022-09-12T07:57:22;3.00;;;2.10;;
9224;SDS011;4647;48.072;11.616;2022-09-12T07:59:49;2.43;;;1.73;;
9224;SDS011;4647;48.072;11.616;2022-09-12T08:02:16;2.63;;;2.30;;
9224;SDS011;4647;48.072;11.616;2022-09-12T08:04:44;2.93;;;2.10;;
9224;SDS011;4647;48.072;11.616;2022-09-12T08:07:12;5.60;;;2.00;;
9224;SDS011;4647;48.072;11.616;2022-09-12T08:09:38;2.17;;;1.97;;
9224;SDS011;4647;48.072;11.616;2022-09-12T08:12:07;3.90;;;2.20;;
9224;SDS011;4647;48.072;11.616;2022-09-12T08:14:34;3.50;;;2.23;;
9224;SDS011;4647;48.072;11.616;2022-09-12T08:17:01;1.93;;;1.73;;
9224;SDS011;4647;48.072;11.616;2022-09-12T08:19:27;2.70;;;1.90;;
9224;SDS011;4647;48.072;11.616;2022-09-12T08:21:55;3.30;;;2.00;;
9224;SDS011;4647;48.072;11.616;2022-09-12T08:24:22;7.53;;;2.20;;
9224;SDS011;4647;48.072;11.616;2022-09-12T08:26:50;2.27;;;1.80;;
9224;SDS011;4647;48.072;11.616;2022-09-12T08:29:18;3.53;;;2.20;;
9224;SDS011;4647;48.072;11.616;2022-09-12T08:31:45;2.90;;;1.97;;
9224;SDS011;4647;48.072;11.616;2022-09-12T08:34:12;3.03;;;2.00;;
9224;SDS011;4647;48.072;11.616;2022-09-12T08:36:41;2.10;;;1.87;;
9224;SDS011;4647;48.072;11.616;2022-09-12T08:39:10;3.20;;;1.73;;
9224;SDS011;4647;48.072;11.616;2022-09-12T08:41:39;2.33;;;1.90;;
9224;SDS011;4647;48.072;11.616;2022-09-12T08:44:20;5.53;;;2.00;;
9224;SDS011;4647;48.072;11.616;2022-09-12T08:47:17;2.43;;;2.00;;
9224;SDS011;4647;48.072;11.616;2022-09-12T08:49:50;5.00;;;2.37;;
9224;SDS011;4647;48.072;11.616;2022-09-12T08:52:22;2.40;;;2.20;;
9224;SDS011;4647;48.072;11.616;2022-09-12T08:54:54;3.47;;;2.37;;
9224;SDS011;4647;48.072;11.616;2022-09-12T08:57:22;2.20;;;2.00;;
9224;SDS011;4647;48.072;11.616;2022-09-12T08:59:51;2.50;;;2.30;;
9224;SDS011;4647;48.072;11.616;2022-09-12T09:05:21;2.10;;;1.90;;
9224;SDS011;4647;48.072;11.616;2022-09-12T09:08:07;1.77;;;1.67;;
9224;SDS011;4647;48.072;11.616;2022-09-12T09:10:48;1.80;;;1.70;;
9224;SDS011;4647;48.072;11.616;2022-09-12T09:13:23;2.53;;;1.90;;
9224;SDS011;4647;48.072;11.616;2022-09-12T09:16:18;2.00;;;1.90;;
9224;SDS011;4647;48.072;11.616;2022-09-12T09:18:51;3.27;;;1.90;;
9224;SDS011;4647;48.072;11.616;2022-09-12T09:21:21;2.00;;;1.70;;
9224;SDS011;4647;48.072;11.616;2022-09-12T09:23:56;3.07;;;1.70;;
9224;SDS011;4647;48.072;11.616;2022-09-12T09:26:33;3.33;;;1.63;;
9224;SDS011;4647;48.072;11.616;2022-09-12T09:29:09;2.03;;;1.83;;
9224;SDS011;4647;48.072;11.616;2022-09-12T09:31:42;1.90;;;1.80;;
9224;SDS011;4647;48.072;11.616;2022-09-12T09:34:13;2.20;;;2.00;;
9224;SDS011;4647;48.072;11.616;2022-09-12T09:36:47;2.60;;;2.00;;
9224;SDS011;4647;48.072;11.616;2022-09-12T09:39:18;1.87;;;1.60;;
9224;SDS011;4647;48.072;11.616;2022-09-12T09:42:11;2.20;;;1.90;;
9224;SDS011;4647;48.072;11.616;2022-09-12T09:44:48;2.00;;;1.90;;
9224;SDS011;4647;48.072;11.616;2022-09-12T09:47:19;2.17;;;1.87;;
9224;SDS011;4647;48.072;11.616;2022-09-12T09:49:46;1.83;;;1.73;;
9224;SDS011;4647;48.072;11.616;2022-09-12T09:52:13;2.07;;;1.87;;
9224;SDS011;4647;48.072;11.616;2022-09-12T09:54:43;3.10;;;1.80;;
9224;SDS011;4647;48.072;11.616;2022-09-12T10:00:22;2.10;;;1.90;;
9224;SDS011;4647;48.072;11.616;2022-09-12T10:03:04;2.00;;;1.80;;
9224;SDS011;4647;48.072;11.616;2022-09-12T10:05:48;3.43;;;2.03;;
9224;SDS011;4647;48.072;11.616;2022-09-12T10:08:20;2.33;;;1.83;;
9224;SDS011;4647;48.072;11.616;2022-09-12T10:10:53;2.10;;;1.63;;
9224;SDS011;4647;48.072;11.616;2022-09-12T10:13:23;2.30;;;1.80;;
9224;SDS011;4647;48.072;11.616;2022-09-12T10:15:55;2.80;;;2.10;;
9224;SDS011;4647;48.072;11.616;2022-09-12T10:18:39;3.33;;;1.80;;
9224;SDS011;4647;48.072;11.616;2022-09-12T10:23:57;1.80;;;1.70;;
9224;SDS011;4647;48.072;11.616;2022-09-12T10:26:30;1.83;;;1.57;;
9224;SDS011;4647;48.072;11.616;2022-09-12T10:29:02;1.63;;;1.53;;
9224;SDS011;4647;48.072;11.616;2022-09-12T10:31:34;2.80;;;2.00;;
9224;SDS011;4647;48.072;11.616;2022-09-12T10:34:13;2.07;;;1.87;;
9224;SDS011;4647;48.072;11.616;2022-09-12T10:36:48;2.23;;;2.03;;
9224;SDS011;4647;48.072;11.616;2022-09-12T10:39:19;2.93;;;1.97;;
9224;SDS011;4647;48.072;11.616;2022-09-12T10:41:47;2.33;;;2.00;;
9224;SDS011;4647;48.072;11.616;2022-09-12T10:44:14;2.57;;;1.80;;
9224;SDS011;4647;48.072;11.616;2022-09-12T10:46:43;2.33;;;1.83;;
9224;SDS011;4647;48.072;11.616;2022-09-12T10:49:13;2.40;;;2.20;;
9224;SDS011;4647;48.072;11.616;2022-09-12T10:51:47;2.87;;;1.80;;
9224;SDS011;4647;48.072;11.616;2022-09-12T10:54:16;1.90;;;1.80;;
9224;SDS011;4647;48.072;11.616;2022-09-12T10:56:48;2.23;;;1.90;;
9224;SDS011;4647;48.072;11.616;2022-09-12T10:59:39;3.50;;;1.93;;
9224;SDS011;4647;48.072;11.616;2022-09-12T11:02:18;2.70;;;1.70;;
9224;SDS011;4647;48.072;11.616;2022-09-12T11:04:54;1.70;;;1.60;;
9224;SDS011;4647;48.072;11.616;2022-09-12T11:07:37;2.47;;;1.80;;
9224;SDS011;4647;48.072;11.616;2022-09-12T11:10:12;2.70;;;1.90;;
9224;SDS011;4647;48.072;11.616;2022-09-12T11:12:57;1.93;;;1.83;;
9224;SDS011;4647;48.072;11.616;2022-09-12T11:15:40;2.40;;;2.10;;
9224;SDS011;4647;48.072;11.616;2022-09-12T11:18:20;2.03;;;1.80;;
9224;SDS011;4647;48.072;11.616;2022-09-12T11:21:03;1.93;;;1.80;;
9224;SDS011;4647;48.072;11.616;2022-09-12T11:23:43;1.97;;;1.73;;
9224;SDS011;4647;48.072;11.616;2022-09-12T11:26:41;4.40;;;1.70;;
9224;SDS011;4647;48.072;11.616;2022-09-12T11:29:18;1.47;;;1.37;;
9224;SDS011;4647;48.072;11.616;2022-09-12T11:34:58;2.10;;;1.80;;
9224;SDS011;4647;48.072;11.616;2022-09-12T11:37:40;2.60;;;2.10;;
9224;SDS011;4647;48.072;11.616;2022-09-12T11:40:23;3.97;;;2.60;;
9224;SDS011;4647;48.072;11.616;2022-09-12T11:42:56;2.10;;;1.90;;
9224;SDS011;4647;48.072;11.616;2022-09-12T11:45:28;1.87;;;1.73;;
9224;SDS011;4647;48.072;11.616;2022-09-12T11:48:00;1.80;;;1.70;;
9224;SDS011;4647;48.072;11.616;2022-09-12T11:50:32;2.47;;;1.70;;
9224;SDS011;4647;48.072;11.616;2022-09-12T11:53:02;1.70;;;1.60;;
9224;SDS011;4647;48.072;11.616;2022-09-12T11:55:38;1.93;;;1.50;;
9224;SDS011;4647;48.072;11.616;2022-09-12T11:58:15;1.57;;;1.40;;
9224;SDS011;4647;48.072;11.616;2022-09-12T12:00:48;1.87;;;1.70;;
9224;SDS011;4647;48.072;11.616;2022-09-12T12:03:19;3.23;;;1.50;;
9224;SDS011;4647;48.072;11.616;2022-09-12T12:05:52;1.67;;;1.57;;
9224;SDS011;4647;48.072;11.616;2022-09-12T12:08:24;1.97;;;1.50;;
9224;SDS011;4647;48.072;11.616;2022-09-12T12:10:53;1.50;;;1.40;;
9224;SDS011;4647;48.072;11.616;2022-09-12T12:13:22;3.37;;;1.70;;
9224;SDS011;4647;48.072;11.616;2022-09-12T12:15:54;1.63;;;1.37;;
9224;SDS011;4647;48.072;11.616;2022-09-12T12:18:24;3.07;;;1.60;;
9224;SDS011;4647;48.072;11.616;2022-09-12T12:20:53;2.77;;;1.47;;
9224;SDS011;4647;48.072;11.616;2022-09-12T12:23:23;1.70;;;1.60;;
9224;SDS011;4647;48.072;11.616;2022-09-12T12:25:53;1.50;;;1.40;;
9224;SDS011;4647;48.072;11.616;2022-09-12T12:31:21;1.90;;;1.70;;
9224;SDS011;4647;48.072;11.616;2022-09-12T12:33:59;3.30;;;1.53;;
9224;SDS011;4647;48.072;11.616;2022-09-12T12:36:44;1.90;;;1.70;;
9224;SDS011;4647;48.072;11.616;2022-09-12T12:45:48;1.77;;;1.60;;
9224;SDS011;4647;48.072;11.616;2022-09-12T12:48:47;1.70;;;1.60;;
9224;SDS011;4647;48.072;11.616;2022-09-12T12:51:34;2.50;;;1.43;;
9224;SDS011;4647;48.072;11.616;2022-09-12T12:57:28;1.97;;;1.60;;
9224;SDS011;4647;48.072;11.616;2022-09-12T13:00:02;2.70;;;1.37;;
9224;SDS011;4647;48.072;11.616;2022-09-12T13:02:34;3.20;;;1.50;;
9224;SDS011;4647;48.072;11.616;2022-09-12T13:05:14;1.50;;;1.40;;
9224;SDS011;4647;48.072;11.616;2022-09-12T13:07:43;1.97;;;1.37;;
9224;SDS011;4647;48.072;11.616;2022-09-12T13:10:18;1.67;;;1.23;;
9224;SDS011;4647;48.072;11.616;2022-09-12T13:12:47;1.77;;;1.40;;
9224;SDS011;4647;48.072;11.616;2022-09-12T13:15:40;1.50;;;1.30;;
9224;SDS011;4647;48.072;11.616;2022-09-12T13:18:15;2.90;;;1.30;;
9224;SDS011;4647;48.072;11.616;2022-09-12T13:20:50;1.57;;;1.30;;
9224;SDS011;4647;48.072;11.616;2022-09-12T13:23:21;2.03;;;1.50;;
9224;SDS011;4647;48.072;11.616;2022-09-12T13:25:52;1.60;;;1.30;;
9224;SDS011;4647;48.072;11.616;2022-09-12T13:28:20;2.47;;;1.30;;
9224;SDS011;4647;48.072;11.616;2022-09-12T13:30:53;2.17;;;1.67;;
9224;SDS011;4647;48.072;11.616;2022-09-12T13:33:27;1.60;;;1.50;;
9224;SDS011;4647;48.072;11.616;2022-09-12T13:36:12;1.87;;;1.50;;
9224;SDS011;4647;48.072;11.616;2022-09-12T13:42:03;1.50;;;1.40;;
9224;SDS011;4647;48.072;11.616;2022-09-12T13:45:01;1.70;;;1.60;;
9224;SDS011;4647;48.072;11.616;2022-09-12T13:47:31;3.50;;;1.40;;
9224;SDS011;4647;48.072;11.616;2022-09-12T13:50:02;1.70;;;1.57;;
9224;SDS011;4647;48.072;11.616;2022-09-12T13:52:32;2.80;;;1.50;;
9224;SDS011;4647;48.072;11.616;2022-09-12T13:55:04;3.60;;;1.40;;
9224;SDS011;4647;48.072;11.616;2022-09-12T13:57:34;1.70;;;1.60;;
9224;SDS011;4647;48.072;11.616;2022-09-12T14:00:04;2.73;;;1.70;;
9224;SDS011;4647;48.072;11.616;2022-09-12T14:02:35;1.57;;;1.47;;
9224;SDS011;4647;48.072;11.616;2022-09-12T14:05:11;1.50;;;1.40;;
9224;SDS011;4647;48.072;11.616;2022-09-12T14:07:41;4.20;;;1.60;;
9224;SDS011;4647;48.072;11.616;2022-09-12T14:10:20;1.60;;;1.50;;
9224;SDS011;4647;48.072;11.616;2022-09-12T14:12:53;1.50;;;1.40;;
9224;SDS011;4647;48.072;11.616;2022-09-12T14:15:21;2.63;;;1.80;;
9224;SDS011;4647;48.072;11.616;2022-09-12T14:17:51;2.33;;;1.57;;
9224;SDS011;4647;48.072;11.616;2022-09-12T14:20:21;2.43;;;1.57;;
9224;SDS011;4647;48.072;11.616;2022-09-12T14:22:50;2.00;;;1.63;;
9224;SDS011;4647;48.072;11.616;2022-09-12T14:25:18;6.20;;;1.50;;
9224;SDS011;4647;48.072;11.616;2022-09-12T14:27:47;2.03;;;1.50;;
9224;SDS011;4647;48.072;11.616;2022-09-12T14:30:19;5.53;;;1.87;;
9224;SDS011;4647;48.072;11.616;2022-09-12T14:33:05;5.00;;;1.60;;
9224;SDS011;4647;48.072;11.616;2022-09-12T14:35:45;1.47;;;1.37;;
9224;SDS011;4647;48.072;11.616;2022-09-12T14:38:17;1.63;;;1.53;;
9224;SDS011;4647;48.072;11.616;2022-09-12T14:40:50;1.53;;;1.43;;
9224;SDS011;4647;48.072;11.616;2022-09-12T14:43:24;1.90;;;1.60;;
9224;SDS011;4647;48.072;11.616;2022-09-12T14:45:54;3.13;;;1.47;;
9224;SDS011;4647;48.072;11.616;2022-09-12T14:48:23;3.93;;;1.57;;
9224;SDS011;4647;48.072;11.616;2022-09-12T14:50:52;1.60;;;1.40;;
9224;SDS011;4647;48.072;11.616;2022-09-12T14:53:23;1.90;;;1.70;;
9224;SDS011;4647;48.072;11.616;2022-09-12T14:55:57;2.03;;;1.40;;
9224;SDS011;4647;48.072;11.616;2022-09-12T14:58:31;1.53;;;1.43;;
9224;SDS011;4647;48.072;11.616;2022-09-12T15:00:59;2.60;;;1.50;;
9224;SDS011;4647;48.072;11.616;2022-09-12T15:03:28;1.77;;;1.67;;
9224;SDS011;4647;48.072;11.616;2022-09-12T15:05:58;2.50;;;1.50;;
9224;SDS011;4647;48.072;11.616;2022-09-12T15:08:27;1.90;;;1.40;;
9224;SDS011;4647;48.072;11.616;2022-09-12T15:10:54;1.70;;;1.47;;
9224;SDS011;4647;48.072;11.616;2022-09-12T15:13:22;1.60;;;1.50;;
9224;SDS011;4647;48.072;11.616;2022-09-12T15:15:51;4.87;;;1.53;;
9224;SDS011;4647;48.072;11.616;2022-09-12T15:18:20;1.60;;;1.50;;
9224;SDS011;4647;48.072;11.616;2022-09-12T15:20:49;1.50;;;1.40;;
9224;SDS011;4647;48.072;11.616;2022-09-12T15:26:08;1.53;;;1.40;;
9224;SDS011;4647;48.072;11.616;2022-09-12T15:28:36;2.97;;;1.50;;
9224;SDS011;4647;48.072;11.616;2022-09-12T15:31:04;3.20;;;1.60;;
9224;SDS011;4647;48.072;11.616;2022-09-12T15:33:33;1.80;;;1.70;;
9224;SDS011;4647;48.072;11.616;2022-09-12T15:36:00;4.83;;;1.67;;
9224;SDS011;4647;48.072;11.616;2022-09-12T15:38:27;1.87;;;1.50;;
9224;SDS011;4647;48.072;11.616;2022-09-12T15:40:56;1.60;;;1.50;;
9224;SDS011;4647;48.072;11.616;2022-09-12T15:43:23;1.90;;;1.43;;
9224;SDS011;4647;48.072;11.616;2022-09-12T15:45:50;1.67;;;1.57;;
9224;SDS011;4647;48.072;11.616;2022-09-12T15:48:17;4.57;;;1.70;;
9224;SDS011;4647;48.072;11.616;2022-09-12T15:50:45;1.90;;;1.37;;
9224;SDS011;4647;48.072;11.616;2022-09-12T15:53:13;2.43;;;1.80;;
9224;SDS011;4647;48.072;11.616;2022-09-12T15:55:41;2.93;;;1.50;;
9224;SDS011;4647;48.072;11.616;2022-09-12T15:58:09;2.60;;;2.00;;
9224;SDS011;4647;48.072;11.616;2022-09-12T16:00:36;1.93;;;1.80;;